sensor_id;sensor_type;location;lat;lon;timestamp;pressure;altitude;pressure_sealevel;temperature;humidity
34921;BME280;21128;50.016;20.002;2023-08-08T00:01:32;98449.77;;;14.18;100.00
34921;BME280;21128;50.016;20.002;2023-08-08T00:04:01;98450.59;;;14.19;100.00
34921;BME280;21128;50.016;20.002;2023-08-08T00:06:28;98459.33;;;14.19;100.00
34921;BME280;21128;50.016;20.002;2023-08-08T00:08:55;98458.33;;;14.20;100.00
34921;BME280;21128;50.016;20.002;2023-08-08T00:11:22;98464.29;;;14.22;100.00
34921;BME280;21128;50.016;20.002;2023-08-08T00:13:49;98476.69;;;14.22;100.00
34921;BME280;21128;50.016;20.002;2023-08-08T00:16:16;98466.11;;;14.22;100.00
34921;BME280;21128;50.016;20.002;2023-08-08T00:18:43;98452.08;;;14.21;100.00
34921;BME280;21128;50.016;20.002;2023-08-08T00:21:10;98467.94;;;14.21;100.00
34921;BME280;21128;50.016;20.002;2023-08-08T00:23:38;98460.16;;;14.20;100.00
34921;BME280;21128;50.016;20.002;2023-08-08T00:26:05;98468.08;;;14.20;100.00
34921;BME280;21128;50.016;20.002;2023-08-08T00:28:32;98467.27;;;14.19;100.00
34921;BME280;21128;50.016;20.002;2023-08-08T00:30:59;98467.63;;;14.16;100.00
34921;BME280;21128;50.016;20.002;2023-08-08T00:33:25;98474.08;;;14.14;100.00
34921;BME280;21128;50.016;20.002;2023-08-08T00:35:52;98465.34;;;14.13;100.00
34921;BME280;21128;50.016;20.002;2023-08-08T00:38:19;98476.05;;;14.12;100.00
34921;BME280;21128;50.016;20.002;2023-08-08T00:40:46;98484.16;;;14.10;100.00
34921;BME280;21128;50.016;20.002;2023-08-08T00:43:13;98470.30;;;14.08;100.00
34921;BME280;21128;50.016;20.002;2023-08-08T00:45:42;98474.77;;;14.07;100.00
34921;BME280;21128;50.016;20.002;2023-08-08T00:48:10;98482.05;;;14.05;100.00
34921;BME280;21128;50.016;20.002;2023-08-08T00:50:41;98490.98;;;14.04;100.00
34921;BME280;21128;50.016;20.002;2023-08-08T00:53:09;98484.84;;;14.04;100.00
34921;BME280;21128;50.016;20.002;2023-08-08T00:55:36;98493.94;;;14.01;100.00
34921;BME280;21128;50.016;20.002;2023-08-08T00:58:04;98489.66;;;14.00;100.00
34921;BME280;21128;50.016;20.002;2023-08-08T01:00:31;98496.94;;;13.98;100.00
34921;BME280;21128;50.016;20.002;2023-08-08T01:02:58;98505.04;;;13.97;100.00
34921;BME280;21128;50.016;20.002;2023-08-08T01:05:30;98506.04;;;13.96;100.00
34921;BME280;21128;50.016;20.002;2023-08-08T01:08:07;98511.64;;;13.93;100.00
34921;BME280;21128;50.016;20.002;2023-08-08T01:10:39;98515.28;;;13.92;100.00
34921;BME280;21128;50.016;20.002;2023-08-08T01:13:15;98523.38;;;13.90;100.00
34921;BME280;21128;50.016;20.002;2023-08-08T01:15:44;98512.82;;;13.90;100.00
34921;BME280;21128;50.016;20.002;2023-08-08T01:18:13;98518.92;;;13.91;100.00
34921;BME280;21128;50.016;20.002;2023-08-08T01:20:43;98519.10;;;13.89;100.00
34921;BME280;21128;50.016;20.002;2023-08-08T01:23:14;98517.45;;;13.88;100.00
34921;BME280;21128;50.016;20.002;2023-08-08T01:25:44;98532.48;;;13.88;100.00
34921;BME280;21128;50.016;20.002;2023-08-08T01:28:11;98534.45;;;13.86;100.00
34921;BME280;21128;50.016;20.002;2023-08-08T01:30:38;98526.88;;;13.83;100.00
34921;BME280;21128;50.016;20.002;2023-08-08T01:33:06;98524.23;;;13.83;100.00
34921;BME280;21128;50.016;20.002;2023-08-08T01:35:38;98533.97;;;13.82;100.00
34921;BME280;21128;50.016;20.002;2023-08-08T01:38:36;98513.20;;;13.79;100.00
34921;BME280;21128;50.016;20.002;2023-08-08T01:41:04;98529.05;;;13.79;100.00
34921;BME280;21128;50.016;20.002;2023-08-08T01:43:33;98531.83;;;13.77;100.00
34921;BME280;21128;50.016;20.002;2023-08-08T01:46:00;98523.27;;;13.75;100.00
34921;BME280;21128;50.016;20.002;2023-08-08T01:48:29;98525.25;;;13.73;100.00
34921;BME280;21128;50.016;20.002;2023-08-08T01:50:56;98531.70;;;13.71;100.00
34921;BME280;21128;50.016;20.002;2023-08-08T01:53:23;98530.03;;;13.70;100.00
34921;BME280;21128;50.016;20.002;2023-08-08T01:55:50;98538.95;;;13.69;100.00
34921;BME280;21128;50.016;20.002;2023-08-08T01:58:18;98533.02;;;13.67;100.00
34921;BME280;21128;50.016;20.002;2023-08-08T02:00:45;98533.20;;;13.65;100.00
34921;BME280;21128;50.016;20.002;2023-08-08T02:03:13;98532.38;;;13.65;100.00
34921;BME280;21128;50.016;20.002;2023-08-08T02:05:40;98528.09;;;13.64;100.00
34921;BME280;21128;50.016;20.002;2023-08-08T02:08:07;98530.05;;;13.62;100.00
34921;BME280;21128;50.016;20.002;2023-08-08T02:10:35;98544.42;;;13.59;100.00
34921;BME280;21128;50.016;20.002;2023-08-08T02:13:02;98544.77;;;13.56;100.00
34921;BME280;21128;50.016;20.002;2023-08-08T02:15:29;98538.67;;;13.56;100.00
34921;BME280;21128;50.016;20.002;2023-08-08T02:17:56;98542.45;;;13.53;100.00
34921;BME280;21128;50.016;20.002;2023-08-08T02:20:23;98544.44;;;13.51;100.00
34921;BME280;21128;50.016;20.002;2023-08-08T02:22:50;98547.08;;;13.51;100.00
34921;BME280;21128;50.016;20.002;2023-08-08T02:25:17;98549.06;;;13.49;100.00
34921;BME280;21128;50.016;20.002;2023-08-08T02:27:44;98552.70;;;13.48;100.00
34921;BME280;21128;50.016;20.002;2023-08-08T02:30:12;98547.59;;;13.46;100.00
34921;BME280;21128;50.016;20.002;2023-08-08T02:32:39;98559.29;;;13.44;100.00
34921;BME280;21128;50.016;20.002;2023-08-08T02:35:07;98558.47;;;13.43;100.00
34921;BME280;21128;50.016;20.002;2023-08-08T02:37:34;98553.36;;;13.42;100.00
34921;BME280;21128;50.016;20.002;2023-08-08T02:40:01;98555.18;;;13.41;100.00
34921;BME280;21128;50.016;20.002;2023-08-08T02:42:27;98555.35;;;13.40;100.00
34921;BME280;21128;50.016;20.002;2023-08-08T02:44:54;98561.80;;;13.37;100.00
34921;BME280;21128;50.016;20.002;2023-08-08T02:47:21;98571.67;;;13.35;100.00
34921;BME280;21128;50.016;20.002;2023-08-08T02:49:48;98562.94;;;13.35;100.00
34921;BME280;21128;50.016;20.002;2023-08-08T02:52:15;98562.94;;;13.35;100.00
34921;BME280;21128;50.016;20.002;2023-08-08T02:54:42;98571.19;;;13.32;100.00
34921;BME280;21128;50.016;20.002;2023-08-08T02:57:09;98574.17;;;13.29;100.00
34921;BME280;21128;50.016;20.002;2023-08-08T02:59:39;98573.48;;;13.27;100.00
34921;BME280;21128;50.016;20.002;2023-08-08T03:02:06;98573.48;;;13.27;100.00
34921;BME280;21128;50.016;20.002;2023-08-08T03:04:33;98570.38;;;13.23;100.00
34921;BME280;21128;50.016;20.002;2023-08-08T03:07:00;98577.46;;;13.22;100.00
34921;BME280;21128;50.016;20.002;2023-08-08T03:09:30;98581.23;;;13.20;100.00
34921;BME280;21128;50.016;20.002;2023-08-08T03:11:57;98580.72;;;13.16;100.00
34921;BME280;21128;50.016;20.002;2023-08-08T03:14:24;98589.63;;;13.15;100.00
34921;BME280;21128;50.016;20.002;2023-08-08T03:16:51;98590.63;;;13.14;100.00
34921;BME280;21128;50.016;20.002;2023-08-08T03:19:18;98596.20;;;13.11;100.00
34921;BME280;21128;50.016;20.002;2023-08-08T03:21:45;98593.08;;;13.08;100.00
34921;BME280;21128;50.016;20.002;2023-08-08T03:24:12;98605.62;;;13.06;100.00
34921;BME280;21128;50.016;20.002;2023-08-08T03:26:39;98599.69;;;13.04;100.00
34921;BME280;21128;50.016;20.002;2023-08-08T03:29:06;98608.73;;;13.01;100.00
34921;BME280;21128;50.016;20.002;2023-08-08T03:31:36;98606.26;;;13.00;100.00
34921;BME280;21128;50.016;20.002;2023-08-08T03:34:03;98610.72;;;12.99;100.00
34921;BME280;21128;50.016;20.002;2023-08-08T03:36:31;98613.69;;;12.96;100.00
34921;BME280;21128;50.016;20.002;2023-08-08T03:38:58;98609.41;;;12.95;100.00
34921;BME280;21128;50.016;20.002;2023-08-08T03:41:24;98612.17;;;12.93;100.00
34921;BME280;21128;50.016;20.002;2023-08-08T03:43:52;98613.83;;;12.94;100.00
34921;BME280;21128;50.016;20.002;2023-08-08T03:46:18;98622.07;;;12.91;100.00
34921;BME280;21128;50.016;20.002;2023-08-08T03:48:45;98621.25;;;12.91;100.00
34921;BME280;21128;50.016;20.002;2023-08-08T03:51:12;98629.16;;;12.91;100.00
34921;BME280;21128;50.016;20.002;2023-08-08T03:53:40;98629.16;;;12.91;100.00
34921;BME280;21128;50.016;20.002;2023-08-08T03:56:07;98630.80;;;12.92;100.00
34921;BME280;21128;50.016;20.002;2023-08-08T03:58:34;98635.77;;;12.95;100.00
34921;BME280;21128;50.016;20.002;2023-08-08T04:01:01;98646.64;;;13.00;100.00
34921;BME280;21128;50.016;20.002;2023-08-08T04:03:28;98642.03;;;13.02;100.00
34921;BME280;21128;50.016;20.002;2023-08-08T04:05:55;98646.66;;;13.08;100.00
34921;BME280;21128;50.016;20.002;2023-08-08T04:08:22;98648.83;;;13.13;100.00
34921;BME280;21128;50.016;20.002;2023-08-08T04:10:49;98652.47;;;13.20;100.00
34921;BME280;21128;50.016;20.002;2023-08-08T04:13:16;98651.83;;;13.34;100.00
34921;BME280;21128;50.016;20.002;2023-08-08T04:15:44;98660.58;;;13.43;100.00
34921;BME280;21128;50.016;20.002;2023-08-08T04:18:11;98661.41;;;13.51;100.00
34921;BME280;21128;50.016;20.002;2023-08-08T04:20:38;98674.44;;;13.61;100.00
34921;BME280;21128;50.016;20.002;2023-08-08T04:23:05;98673.78;;;13.67;100.00
34921;BME280;21128;50.016;20.002;2023-08-08T04:25:32;98682.70;;;13.74;100.00
34921;BME280;21128;50.016;20.002;2023-08-08T04:27:59;98682.69;;;13.83;100.00
34921;BME280;21128;50.016;20.002;2023-08-08T04:30:26;98688.31;;;13.88;100.00
34921;BME280;21128;50.016;20.002;2023-08-08T04:32:53;98697.70;;;13.90;100.00
34921;BME280;21128;50.016;20.002;2023-08-08T04:35:20;98703.47;;;13.94;100.00
34921;BME280;21128;50.016;20.002;2023-08-08T04:37:47;98705.45;;;14.00;100.00
34921;BME280;21128;50.016;20.002;2023-08-08T04:40:14;98706.09;;;14.10;100.00
34921;BME280;21128;50.016;20.002;2023-08-08T04:42:41;98701.79;;;14.17;100.00
34921;BME280;21128;50.016;20.002;2023-08-08T04:45:09;98710.52;;;14.26;100.00
34921;BME280;21128;50.016;20.002;2023-08-08T04:47:36;98718.95;;;14.29;100.00
34921;BME280;21128;50.016;20.002;2023-08-08T04:50:03;98711.98;;;14.36;100.00
34921;BME280;21128;50.016;20.002;2023-08-08T04:52:30;98707.03;;;14.50;100.00
34921;BME280;21128;50.016;20.002;2023-08-08T04:54:57;98713.44;;;14.63;100.00
34921;BME280;21128;50.016;20.002;2023-08-08T04:57:24;98707.13;;;14.73;100.00
34921;BME280;21128;50.016;20.002;2023-08-08T04:59:51;98712.84;;;14.84;100.00
34921;BME280;21128;50.016;20.002;2023-08-08T05:02:18;98717.06;;;15.02;100.00
34921;BME280;21128;50.016;20.002;2023-08-08T05:04:46;98710.03;;;15.17;100.00
34921;BME280;21128;50.016;20.002;2023-08-08T05:07:13;98713.23;;;15.35;100.00
34921;BME280;21128;50.016;20.002;2023-08-08T05:09:40;98713.12;;;15.52;100.00
34921;BME280;21128;50.016;20.002;2023-08-08T05:12:07;98713.94;;;15.52;100.00
34921;BME280;21128;50.016;20.002;2023-08-08T05:14:34;98718.41;;;15.52;100.00
34921;BME280;21128;50.016;20.002;2023-08-08T05:17:02;98728.55;;;15.48;100.00
34921;BME280;21128;50.016;20.002;2023-08-08T05:19:29;98734.05;;;15.38;100.00
34921;BME280;21128;50.016;20.002;2023-08-08T05:21:57;98733.13;;;15.31;100.00
34921;BME280;21128;50.016;20.002;2023-08-08T05:24:24;98740.75;;;15.26;100.00
34921;BME280;21128;50.016;20.002;2023-08-08T05:26:51;98743.76;;;15.23;100.00
34921;BME280;21128;50.016;20.002;2023-08-08T05:29:19;98742.75;;;15.24;100.00
34921;BME280;21128;50.016;20.002;2023-08-08T05:31:46;98749.20;;;15.21;100.00
34921;BME280;21128;50.016;20.002;2023-08-08T05:34:14;98756.21;;;15.14;100.00
34921;BME280;21128;50.016;20.002;2023-08-08T05:36:41;98751.42;;;15.10;100.00
34921;BME280;21128;50.016;20.002;2023-08-08T05:39:08;98758.89;;;15.06;100.00
34921;BME280;21128;50.016;20.002;2023-08-08T05:41:36;98758.22;;;15.04;100.00
34921;BME280;21128;50.016;20.002;2023-08-08T05:44:03;98769.98;;;15.02;100.00
34921;BME280;21128;50.016;20.002;2023-08-08T05:46:30;98772.34;;;14.97;100.00
34921;BME280;21128;50.016;20.002;2023-08-08T05:48:57;98769.84;;;14.95;100.00
34921;BME280;21128;50.016;20.002;2023-08-08T05:51:24;98763.72;;;14.95;100.00
34921;BME280;21128;50.016;20.002;2023-08-08T05:53:51;98764.72;;;14.93;100.00
34921;BME280;21128;50.016;20.002;2023-08-08T05:56:18;98767.37;;;14.93;100.00
34921;BME280;21128;50.016;20.002;2023-08-08T05:58:45;98766.55;;;14.93;100.00
34921;BME280;21128;50.016;20.002;2023-08-08T06:01:12;98772.36;;;14.88;100.00
34921;BME280;21128;50.016;20.002;2023-08-08T06:03:39;98772.52;;;14.87;100.00
34921;BME280;21128;50.016;20.002;2023-08-08T06:06:06;98773.69;;;14.84;100.00
34921;BME280;21128;50.016;20.002;2023-08-08T06:08:33;98768.72;;;14.89;100.00
34921;BME280;21128;50.016;20.002;2023-08-08T06:11:00;98766.08;;;14.89;100.00
34921;BME280;21128;50.016;20.002;2023-08-08T06:13:27;98774.02;;;14.89;100.00
34921;BME280;21128;50.016;20.002;2023-08-08T06:15:54;98769.84;;;14.95;100.00
34921;BME280;21128;50.016;20.002;2023-08-08T06:18:21;98775.77;;;15.05;100.00
34921;BME280;21128;50.016;20.002;2023-08-08T06:20:48;98767.98;;;15.04;100.00
34921;BME280;21128;50.016;20.002;2023-08-08T06:23:15;98755.75;;;15.03;99.53
34921;BME280;21128;50.016;20.002;2023-08-08T06:25:42;98767.98;;;15.04;99.56
34921;BME280;21128;50.016;20.002;2023-08-08T06:28:10;98769.16;;;15.01;99.15
34921;BME280;21128;50.016;20.002;2023-08-08T06:30:38;98759.00;;;15.13;99.16
34921;BME280;21128;50.016;20.002;2023-08-08T06:33:05;98755.98;;;15.24;97.56
34921;BME280;21128;50.016;20.002;2023-08-08T06:35:32;98754.12;;;15.33;98.45
34921;BME280;21128;50.016;20.002;2023-08-08T06:37:59;98757.50;;;15.49;98.45
34921;BME280;21128;50.016;20.002;2023-08-08T06:40:26;98759.25;;;15.65;98.75
34921;BME280;21128;50.016;20.002;2023-08-08T06:42:53;98757.76;;;15.86;99.57
34921;BME280;21128;50.016;20.002;2023-08-08T06:45:21;98764.45;;;15.96;96.54
34921;BME280;21128;50.016;20.002;2023-08-08T06:47:48;98759.64;;;16.00;97.34
34921;BME280;21128;50.016;20.002;2023-08-08T06:50:15;98757.74;;;16.09;97.62
34921;BME280;21128;50.016;20.002;2023-08-08T06:52:43;98752.89;;;16.12;97.31
34921;BME280;21128;50.016;20.002;2023-08-08T06:55:10;98752.78;;;16.05;96.69
34921;BME280;21128;50.016;20.002;2023-08-08T06:57:38;98756.92;;;16.08;95.57
34921;BME280;21128;50.016;20.002;2023-08-08T07:00:06;98759.09;;;16.04;94.86
34921;BME280;21128;50.016;20.002;2023-08-08T07:02:34;98750.80;;;16.08;95.59
34921;BME280;21128;50.016;20.002;2023-08-08T07:05:01;98746.70;;;16.20;95.88
34921;BME280;21128;50.016;20.002;2023-08-08T07:07:30;98745.91;;;16.34;93.83
34921;BME280;21128;50.016;20.002;2023-08-08T07:09:59;98744.25;;;16.48;95.33
34921;BME280;21128;50.016;20.002;2023-08-08T07:12:26;98752.60;;;16.59;93.77
34921;BME280;21128;50.016;20.002;2023-08-08T07:14:53;98735.77;;;16.67;92.72
34921;BME280;21128;50.016;20.002;2023-08-08T07:17:20;98745.55;;;16.52;91.32
34921;BME280;21128;50.016;20.002;2023-08-08T07:19:47;98750.12;;;16.43;90.51
34921;BME280;21128;50.016;20.002;2023-08-08T07:22:14;98750.12;;;16.43;90.67
34921;BME280;21128;50.016;20.002;2023-08-08T07:24:41;98749.74;;;16.46;91.52
34921;BME280;21128;50.016;20.002;2023-08-08T07:27:08;98750.33;;;16.56;91.09
34921;BME280;21128;50.016;20.002;2023-08-08T07:29:35;98744.02;;;16.72;92.70
34921;BME280;21128;50.016;20.002;2023-08-08T07:32:03;98751.16;;;16.86;88.89
34921;BME280;21128;50.016;20.002;2023-08-08T07:34:31;98745.31;;;16.91;90.44
34921;BME280;21128;50.016;20.002;2023-08-08T07:36:59;98745.02;;;17.01;88.32
34921;BME280;21128;50.016;20.002;2023-08-08T07:39:26;98742.45;;;17.07;87.17
34921;BME280;21128;50.016;20.002;2023-08-08T07:41:53;98733.48;;;17.08;85.79
34921;BME280;21128;50.016;20.002;2023-08-08T07:44:21;98739.69;;;17.15;84.05
34921;BME280;21128;50.016;20.002;2023-08-08T07:46:48;98736.66;;;17.19;85.41
34921;BME280;21128;50.016;20.002;2023-08-08T07:49:15;98734.40;;;17.37;87.68
34921;BME280;21128;50.016;20.002;2023-08-08T07:51:42;98733.61;;;17.58;86.21
34921;BME280;21128;50.016;20.002;2023-08-08T07:54:09;98739.36;;;17.61;82.37
34921;BME280;21128;50.016;20.002;2023-08-08T07:56:37;98732.63;;;17.65;84.39
34921;BME280;21128;50.016;20.002;2023-08-08T07:59:04;98725.66;;;17.79;84.38
34921;BME280;21128;50.016;20.002;2023-08-08T08:01:32;98723.02;;;18.07;84.17
34921;BME280;21128;50.016;20.002;2023-08-08T08:03:59;98724.42;;;18.31;81.53
34921;BME280;21128;50.016;20.002;2023-08-08T08:06:26;98721.95;;;18.29;81.52
34921;BME280;21128;50.016;20.002;2023-08-08T08:08:53;98729.94;;;18.29;80.42
34921;BME280;21128;50.016;20.002;2023-08-08T08:11:20;98738.60;;;18.10;72.69
34921;BME280;21128;50.016;20.002;2023-08-08T08:13:47;98741.33;;;17.95;73.39
34921;BME280;21128;50.016;20.002;2023-08-08T08:16:14;98751.91;;;17.89;73.84
34921;BME280;21128;50.016;20.002;2023-08-08T08:18:41;98740.58;;;17.80;74.18
34921;BME280;21128;50.016;20.002;2023-08-08T08:21:09;98740.16;;;17.77;73.03
34921;BME280;21128;50.016;20.002;2023-08-08T08:23:36;98733.91;;;17.69;72.82
34921;BME280;21128;50.016;20.002;2023-08-08T08:26:03;98734.47;;;17.65;71.62
34921;BME280;21128;50.016;20.002;2023-08-08T08:28:29;98739.75;;;17.58;71.44
34921;BME280;21128;50.016;20.002;2023-08-08T08:30:56;98743.45;;;17.64;70.37
34921;BME280;21128;50.016;20.002;2023-08-08T08:33:23;98734.94;;;17.68;69.70
34921;BME280;21128;50.016;20.002;2023-08-08T08:35:50;98737.98;;;17.87;70.53
34921;BME280;21128;50.016;20.002;2023-08-08T08:38:17;98737.30;;;17.99;70.25
34921;BME280;21128;50.016;20.002;2023-08-08T08:40:45;98750.11;;;18.17;67.51
34921;BME280;21128;50.016;20.002;2023-08-08T08:43:15;98728.16;;;18.37;69.61
34921;BME280;21128;50.016;20.002;2023-08-08T08:45:48;98733.38;;;18.58;69.45
34921;BME280;21128;50.016;20.002;2023-08-08T08:48:18;98737.31;;;18.62;68.32
34921;BME280;21128;50.016;20.002;2023-08-08T08:50:47;98744.68;;;18.60;66.66
34921;BME280;21128;50.016;20.002;2023-08-08T08:53:15;98747.34;;;18.60;65.90
34921;BME280;21128;50.016;20.002;2023-08-08T08:55:44;98741.37;;;18.58;66.15
34921;BME280;21128;50.016;20.002;2023-08-08T08:58:16;98749.08;;;18.46;64.90
34921;BME280;21128;50.016;20.002;2023-08-08T09:00:47;98742.16;;;18.24;65.05
34921;BME280;21128;50.016;20.002;2023-08-08T09:03:15;98740.64;;;18.08;64.69
34921;BME280;21128;50.016;20.002;2023-08-08T09:05:43;98750.45;;;18.08;64.05
34921;BME280;21128;50.016;20.002;2023-08-08T09:08:11;98740.91;;;17.92;62.01
34921;BME280;21128;50.016;20.002;2023-08-08T09:10:39;98735.89;;;17.82;62.81
34921;BME280;21128;50.016;20.002;2023-08-08T09:13:06;98741.89;;;17.69;62.25
34921;BME280;21128;50.016;20.002;2023-08-08T09:15:34;98734.22;;;17.75;64.34
34921;BME280;21128;50.016;20.002;2023-08-08T09:18:01;98728.59;;;18.12;64.51
34921;BME280;21128;50.016;20.002;2023-08-08T09:20:28;98731.28;;;18.47;64.21
34921;BME280;21128;50.016;20.002;2023-08-08T09:22:56;98737.48;;;18.89;63.71
34921;BME280;21128;50.016;20.002;2023-08-08T09:25:24;98729.23;;;19.31;63.68
34921;BME280;21128;50.016;20.002;2023-08-08T09:27:52;98731.80;;;19.66;62.51
34921;BME280;21128;50.016;20.002;2023-08-08T09:30:22;98731.22;;;19.77;58.34
34921;BME280;21128;50.016;20.002;2023-08-08T09:32:49;98724.88;;;19.85;56.64
34921;BME280;21128;50.016;20.002;2023-08-08T09:35:16;98724.23;;;19.70;57.15
34921;BME280;21128;50.016;20.002;2023-08-08T09:37:43;98729.57;;;19.70;57.20
34921;BME280;21128;50.016;20.002;2023-08-08T09:40:10;98727.09;;;19.61;57.15
34921;BME280;21128;50.016;20.002;2023-08-08T09:42:39;98724.22;;;19.63;58.71
34921;BME280;21128;50.016;20.002;2023-08-08T09:45:08;98725.88;;;19.90;58.24
34921;BME280;21128;50.016;20.002;2023-08-08T09:47:35;98726.08;;;20.09;57.15
34921;BME280;21128;50.016;20.002;2023-08-08T09:50:03;98732.45;;;20.21;54.84
34921;BME280;21128;50.016;20.002;2023-08-08T09:52:34;98713.14;;;20.25;54.64
34921;BME280;21128;50.016;20.002;2023-08-08T09:55:03;98718.87;;;20.42;54.17
34921;BME280;21128;50.016;20.002;2023-08-08T09:57:32;98703.11;;;20.21;54.09
34921;BME280;21128;50.016;20.002;2023-08-08T10:00:00;98711.53;;;20.05;53.26
34921;BME280;21128;50.016;20.002;2023-08-08T10:02:28;98716.87;;;19.78;53.42
34921;BME280;21128;50.016;20.002;2023-08-08T10:04:57;98731.20;;;19.64;54.66
34921;BME280;21128;50.016;20.002;2023-08-08T10:07:25;98710.41;;;19.39;53.86
34921;BME280;21128;50.016;20.002;2023-08-08T10:09:52;98715.08;;;19.18;53.52
34921;BME280;21128;50.016;20.002;2023-08-08T10:12:20;98705.77;;;18.94;54.83
34921;BME280;21128;50.016;20.002;2023-08-08T10:14:47;98707.55;;;18.80;54.78
34921;BME280;21128;50.016;20.002;2023-08-08T10:17:15;98709.59;;;18.78;56.54
34921;BME280;21128;50.016;20.002;2023-08-08T10:19:53;98706.63;;;19.01;57.28
34921;BME280;21128;50.016;20.002;2023-08-08T10:22:22;98705.59;;;19.08;55.90
34921;BME280;21128;50.016;20.002;2023-08-08T10:24:54;98698.86;;;19.12;56.36
34921;BME280;21128;50.016;20.002;2023-08-08T10:27:32;98694.16;;;19.15;56.41
34921;BME280;21128;50.016;20.002;2023-08-08T10:30:07;98698.25;;;19.10;55.56
34921;BME280;21128;50.016;20.002;2023-08-08T10:32:44;98694.95;;;19.08;54.60
34921;BME280;21128;50.016;20.002;2023-08-08T10:35:14;98709.66;;;18.98;53.93
34921;BME280;21128;50.016;20.002;2023-08-08T10:37:52;98708.02;;;18.97;53.83
34921;BME280;21128;50.016;20.002;2023-08-08T10:40:23;98704.09;;;18.86;52.56
34921;BME280;21128;50.016;20.002;2023-08-08T10:42:52;98704.30;;;18.84;54.18
34921;BME280;21128;50.016;20.002;2023-08-08T10:45:19;98702.70;;;18.97;53.26
34921;BME280;21128;50.016;20.002;2023-08-08T10:47:46;98702.32;;;19.06;53.05
34921;BME280;21128;50.016;20.002;2023-08-08T10:50:22;98699.07;;;19.11;53.62
34921;BME280;21128;50.016;20.002;2023-08-08T10:55:20;98682.80;;;19.67;55.78
34921;BME280;21128;50.016;20.002;2023-08-08T10:57:55;98681.56;;;20.16;54.70
34921;BME280;21128;50.016;20.002;2023-08-08T11:00:28;98679.48;;;20.38;53.67
34921;BME280;21128;50.016;20.002;2023-08-08T11:02:57;98683.16;;;20.50;53.46
34921;BME280;21128;50.016;20.002;2023-08-08T11:05:28;98677.20;;;20.55;52.62
34921;BME280;21128;50.016;20.002;2023-08-08T11:07:55;98676.91;;;20.76;54.14
34921;BME280;21128;50.016;20.002;2023-08-08T11:10:23;98686.50;;;20.97;53.49
34921;BME280;21128;50.016;20.002;2023-08-08T11:15:24;98676.61;;;21.04;52.74
34921;BME280;21128;50.016;20.002;2023-08-08T11:17:51;98680.45;;;21.15;53.50
34921;BME280;21128;50.016;20.002;2023-08-08T11:20:20;98689.06;;;21.17;53.21
34921;BME280;21128;50.016;20.002;2023-08-08T11:22:55;98679.19;;;21.17;52.91
34921;BME280;21128;50.016;20.002;2023-08-08T11:25:25;98689.06;;;21.17;53.24
34921;BME280;21128;50.016;20.002;2023-08-08T11:27:54;98677.55;;;21.16;51.42
34921;BME280;21128;50.016;20.002;2023-08-08T11:30:22;98672.48;;;21.01;52.31
34921;BME280;21128;50.016;20.002;2023-08-08T11:32:50;98685.10;;;20.88;52.62
34921;BME280;21128;50.016;20.002;2023-08-08T11:35:20;98697.62;;;20.94;52.64
34921;BME280;21128;50.016;20.002;2023-08-08T11:37:51;98685.35;;;21.18;49.64
34921;BME280;21128;50.016;20.002;2023-08-08T11:40:19;98678.31;;;21.37;50.19
34921;BME280;21128;50.016;20.002;2023-08-08T11:42:47;98683.84;;;21.67;50.03
34921;BME280;21128;50.016;20.002;2023-08-08T11:45:17;98673.55;;;21.95;48.80
34921;BME280;21128;50.016;20.002;2023-08-08T11:47:55;98675.39;;;22.19;48.80
34921;BME280;21128;50.016;20.002;2023-08-08T11:50:24;98689.27;;;22.10;49.38
34921;BME280;21128;50.016;20.002;2023-08-08T11:52:53;98682.80;;;21.68;47.10
34921;BME280;21128;50.016;20.002;2023-08-08T11:55:27;98692.55;;;21.17;48.78
34921;BME280;21128;50.016;20.002;2023-08-08T11:57:55;98692.47;;;20.92;49.72
34921;BME280;21128;50.016;20.002;2023-08-08T12:00:29;98688.26;;;20.65;50.24
34921;BME280;21128;50.016;20.002;2023-08-08T12:02:58;98713.78;;;20.28;49.85
34921;BME280;21128;50.016;20.002;2023-08-08T12:05:26;98710.30;;;19.87;50.88
34921;BME280;21128;50.016;20.002;2023-08-08T12:07:53;98719.31;;;19.60;51.40
34921;BME280;21128;50.016;20.002;2023-08-08T12:10:21;98748.89;;;19.24;52.51
34921;BME280;21128;50.016;20.002;2023-08-08T12:12:54;98748.17;;;18.95;54.65
34921;BME280;21128;50.016;20.002;2023-08-08T12:15:22;98757.33;;;18.58;56.58
34921;BME280;21128;50.016;20.002;2023-08-08T12:17:49;98740.16;;;18.26;57.77
34921;BME280;21128;50.016;20.002;2023-08-08T12:20:16;98740.64;;;18.08;58.27
34921;BME280;21128;50.016;20.002;2023-08-08T12:22:44;98743.04;;;18.03;58.66
34921;BME280;21128;50.016;20.002;2023-08-08T12:25:11;98740.52;;;17.95;59.83
34921;BME280;21128;50.016;20.002;2023-08-08T12:27:39;98751.21;;;17.80;60.84
34921;BME280;21128;50.016;20.002;2023-08-08T12:30:07;98765.77;;;17.48;62.29
34921;BME280;21128;50.016;20.002;2023-08-08T12:32:34;98772.38;;;17.16;63.39
34921;BME280;21128;50.016;20.002;2023-08-08T12:35:01;98784.45;;;16.89;64.13
34921;BME280;21128;50.016;20.002;2023-08-08T12:37:28;98764.73;;;16.39;66.43
34921;BME280;21128;50.016;20.002;2023-08-08T12:39:55;98770.85;;;16.25;67.77
34921;BME280;21128;50.016;20.002;2023-08-08T12:42:23;98762.27;;;16.23;67.71
34921;BME280;21128;50.016;20.002;2023-08-08T12:44:50;98754.39;;;16.29;69.01
34921;BME280;21128;50.016;20.002;2023-08-08T12:47:18;98755.05;;;16.46;70.07
34921;BME280;21128;50.016;20.002;2023-08-08T12:49:47;98749.95;;;16.59;70.18
34921;BME280;21128;50.016;20.002;2023-08-08T12:52:14;98729.93;;;16.86;69.86
34921;BME280;21128;50.016;20.002;2023-08-08T12:54:41;98736.86;;;17.38;70.03